| time (UTC) | temp C | wind direction | speed KPH | gust KPH | rain 1hr cm | rain 24hr cm | rain mn cm | humidity % | barometer mb |
| 20260504150903 | 20 | 240 | 8.0 | 19.3 | 0.00 | 0.00 | 0.00 | 52 | 1016.5 |
| 20260504150432 | 20 | 270 | 11.3 | 20.9 | 0.00 | 0.00 | 0.00 | 51 | 1016.5 |
| 20260504140903 | 18 | 218 | 11.3 | 17.7 | 0.00 | 0.00 | 0.00 | 55 | 1017.0 |
| 20260504140433 | 17 | 209 | 8.0 | 17.7 | 0.00 | 0.00 | 0.00 | 57 | 1017.0 |
| 20260504130222 | 15 | 51 | 1.6 | 4.8 | 0.00 | 0.00 | 0.00 | 69 | 1017.2 |
| 20260504120223 | 10 | 345 | 1.6 | 3.2 | 0.00 | 0.00 | 0.00 | 88 | 1016.8 |
| 20260504110223 | 7 | 348 | 1.6 | 3.2 | 0.00 | 0.00 | 0.00 | 94 | 1016.4 |
| 20260504100222 | 7 | 0 | 0.0 | 1.6 | 0.00 | 0.00 | 0.00 | 97 | 1016.0 |
| 20260504081756 | 7 | 357 | 0.0 | 1.6 | 0.00 | 0.00 | 0.00 | 96 | 1016.1 |
| 20260504081116 | 7 | 218 | 1.6 | 1.6 | 0.00 | 0.00 | 0.00 | 95 | 1016.2 |
| 20260504080222 | 8 | 12 | 0.0 | 1.6 | 0.00 | 0.00 | 0.00 | 94 | 1016.2 |
| 20260504070223 | 8 | 180 | 1.6 | 3.2 | 0.00 | 0.00 | 0.00 | 94 | 1016.6 |
| 20260504060222 | 8 | 148 | 1.6 | 3.2 | 0.00 | 0.00 | 0.00 | 94 | 1017.1 |
| 20260504050222 | 9 | 21 | 1.6 | 3.2 | 0.00 | 0.00 | 0.00 | 92 | 1017.4 |
| 20260504045548 | 9 | 147 | 1.6 | 3.2 | 0.00 | 0.00 | 0.00 | 92 | 1017.4 |
| 20260504042902 | 9 | 349 | 4.8 | 4.8 | 0.00 | 0.00 | 0.00 | 95 | 1017.3 |
| 20260504042223 | 8 | 266 | 1.6 | 3.2 | 0.00 | 0.00 | 0.00 | 96 | 1017.3 |
| 20260504041542 | 9 | 283 | 1.6 | 4.8 | 0.00 | 0.00 | 0.00 | 92 | 1017.2 |
| 20260504041113 | 10 | 269 | 1.6 | 3.2 | 0.00 | 0.00 | 0.00 | 87 | 1017.2 |
| 20260504040222 | 10 | 156 | 1.6 | 3.2 | 0.00 | 0.00 | 0.00 | 87 | 1017.3 |
| 20260504035542 | 10 | 142 | 1.6 | 4.8 | 0.00 | 0.00 | 0.00 | 87 | 1017.4 |
| 20260504034902 | 10 | 143 | 1.6 | 3.2 | 0.00 | 0.00 | 0.00 | 87 | 1017.5 |
| 20260504034222 | 10 | 149 | 1.6 | 3.2 | 0.00 | 0.00 | 0.00 | 87 | 1017.6 |
| 20260504033542 | 10 | 135 | 1.6 | 3.2 | 0.00 | 0.00 | 0.00 | 89 | 1017.7 |
| 20260504032902 | 10 | 211 | 1.6 | 3.2 | 0.00 | 0.00 | 0.00 | 87 | 1017.8 |
| 20260504032223 | 10 | 182 | 1.6 | 3.2 | 0.00 | 0.00 | 0.00 | 86 | 1017.8 |
| 20260504031542 | 10 | 20 | 1.6 | 3.2 | 0.00 | 0.00 | 0.00 | 83 | 1017.9 |
| 20260504030908 | 10 | 149 | 1.6 | 3.2 | 0.00 | 0.00 | 0.00 | 86 | 1018.0 |
| 20260504025542 | 10 | 259 | 1.6 | 3.2 | 0.00 | 0.00 | 0.00 | 87 | 1018.1 |
| 20260504024904 | 11 | 192 | 1.6 | 3.2 | 0.00 | 0.00 | 0.00 | 80 | 1017.9 |
| 20260504024222 | 10 | 149 | 1.6 | 3.2 | 0.00 | 0.00 | 0.00 | 79 | 1018.0 |
| 20260504023542 | 11 | 242 | 1.6 | 3.2 | 0.00 | 0.00 | 0.00 | 77 | 1017.9 |
| 20260504022902 | 11 | 125 | 1.6 | 3.2 | 0.00 | 0.00 | 0.00 | 79 | 1017.9 |
| 20260504022222 | 11 | 309 | 1.6 | 3.2 | 0.00 | 0.00 | 0.00 | 78 | 1017.9 |
| 20260504021542 | 11 | 241 | 1.6 | 3.2 | 0.00 | 0.00 | 0.00 | 80 | 1017.8 |
| 20260504020902 | 11 | 0 | 0.0 | 1.6 | 0.00 | 0.00 | 0.00 | 79 | 1017.6 |
| 20260504020223 | 11 | 298 | 1.6 | 1.6 | 0.00 | 0.00 | 0.00 | 80 | 1017.6 |
| 20260504015543 | 11 | 344 | 1.6 | 3.2 | 0.00 | 0.00 | 0.00 | 79 | 1017.5 |
| 20260504015112 | 11 | 299 | 1.6 | 4.8 | 0.00 | 0.00 | 0.00 | 78 | 1017.4 |
| 20260504014222 | 11 | 303 | 1.6 | 4.8 | 0.00 | 0.00 | 0.00 | 75 | 1017.3 |
| 20260504013542 | 12 | 19 | 1.6 | 1.6 | 0.00 | 0.00 | 0.00 | 69 | 1017.1 |
| 20260504012902 | 12 | 8 | 1.6 | 1.6 | 0.00 | 0.00 | 0.00 | 73 | 1017.0 |
| 20260504012222 | 12 | 1 | 1.6 | 1.6 | 0.00 | 0.00 | 0.00 | 70 | 1016.9 |
| 20260504011542 | 12 | 319 | 1.6 | 1.6 | 0.00 | 0.00 | 0.00 | 70 | 1016.9 |
| 20260504011115 | 12 | 336 | 1.6 | 3.2 | 0.00 | 0.00 | 0.00 | 69 | 1016.8 |
| 20260504010222 | 13 | 278 | 3.2 | 3.2 | 0.00 | 0.00 | 0.00 | 68 | 1017.0 |
| 20260504005543 | 14 | 26 | 1.6 | 3.2 | 0.00 | 0.00 | 0.00 | 64 | 1016.9 |
| 20260504004903 | 15 | 126 | 1.6 | 4.8 | 0.00 | 0.00 | 0.00 | 60 | 1016.9 |
| 20260504004222 | 15 | 140 | 1.6 | 3.2 | 0.00 | 0.00 | 0.00 | 58 | 1016.9 |
| 20260504003754 | 15 | 180 | 3.2 | 3.2 | 0.00 | 0.00 | 0.00 | 51 | 1017.0 |
| 20260504003114 | 16 | 157 | 1.6 | 3.2 | 0.00 | 0.00 | 0.00 | 49 | 1016.9 |
| 20260504002222 | 16 | 356 | 1.6 | 1.6 | 0.00 | 0.00 | 0.00 | 49 | 1016.9 |
| 20260504001543 | 17 | 340 | 1.6 | 4.8 | 0.00 | 0.00 | 0.00 | 46 | 1017.0 |
| 20260504000902 | 17 | 302 | 1.6 | 4.8 | 0.00 | 0.00 | 0.00 | 47 | 1017.1 |
| 20260504000222 | 18 | 288 | 1.6 | 6.4 | 0.00 | 0.00 | 0.00 | 39 | 1017.0 |
| 20260503234903 | 18 | 308 | 4.8 | 8.0 | 0.00 | 0.00 | 0.00 | 35 | 1017.1 |
| 20260503234222 | 18 | 302 | 6.4 | 14.5 | 0.00 | 0.00 | 0.00 | 35 | 1017.1 |
| 20260503233547 | 18 | 302 | 6.4 | 14.5 | 0.00 | 0.00 | 0.00 | 34 | 1017.1 |
| 20260503232223 | 18 | 286 | 8.0 | 16.1 | 0.00 | 0.00 | 0.00 | 35 | 1017.1 |
| 20260503231543 | 19 | 284 | 8.0 | 19.3 | 0.00 | 0.00 | 0.00 | 35 | 1017.4 |
| 20260503230902 | 18 | 298 | 8.0 | 16.1 | 0.00 | 0.00 | 0.00 | 34 | 1017.2 |
| 20260503230222 | 19 | 309 | 9.7 | 19.3 | 0.00 | 0.00 | 0.00 | 33 | 1017.3 |
| 20260503225542 | 19 | 297 | 9.7 | 19.3 | 0.00 | 0.00 | 0.00 | 33 | 1017.4 |
| 20260503224902 | 19 | 295 | 6.4 | 19.3 | 0.00 | 0.00 | 0.00 | 34 | 1017.4 |
| 20260503224226 | 18 | 314 | 11.3 | 19.3 | 0.00 | 0.00 | 0.00 | 33 | 1017.4 |
| 20260503222902 | 19 | 311 | 9.7 | 19.3 | 0.00 | 0.00 | 0.00 | 34 | 1017.4 |
| 20260503222222 | 19 | 284 | 8.0 | 19.3 | 0.00 | 0.00 | 0.00 | 33 | 1017.4 |
| 20260503221757 | 19 | 322 | 12.9 | 22.5 | 0.00 | 0.00 | 0.00 | 32 | 1017.6 |
| 20260503220902 | 19 | 294 | 11.3 | 19.3 | 0.00 | 0.00 | 0.00 | 34 | 1017.6 |
| 20260503220222 | 19 | 275 | 9.7 | 20.9 | 0.00 | 0.00 | 0.00 | 34 | 1017.7 |
| 20260503215542 | 19 | 282 | 9.7 | 22.5 | 0.00 | 0.00 | 0.00 | 32 | 1017.7 |
| 20260503214902 | 18 | 319 | 14.5 | 22.5 | 0.00 | 0.00 | 0.00 | 33 | 1017.7 |
| 20260503214435 | 18 | 309 | 14.5 | 24.1 | 0.00 | 0.00 | 0.00 | 32 | 1017.9 |
| 20260503213542 | 18 | 306 | 16.1 | 22.5 | 0.00 | 0.00 | 0.00 | 33 | 1018.0 |
| 20260503212902 | 18 | 314 | 12.9 | 24.1 | 0.00 | 0.00 | 0.00 | 33 | 1017.9 |
| 20260503212222 | 19 | 289 | 14.5 | 24.1 | 0.00 | 0.00 | 0.00 | 33 | 1018.1 |
| 20260503211543 | 19 | 261 | 9.7 | 20.9 | 0.00 | 0.00 | 0.00 | 34 | 1018.2 |
| 20260503210902 | 18 | 311 | 12.9 | 19.3 | 0.00 | 0.00 | 0.00 | 33 | 1018.3 |
| 20260503210434 | 18 | 302 | 14.5 | 29.0 | 0.00 | 0.00 | 0.00 | 31 | 1018.3 |
| 20260503205543 | 19 | 260 | 14.5 | 29.0 | 0.00 | 0.00 | 0.00 | 33 | 1018.3 |
| 20260503204902 | 18 | 250 | 14.5 | 20.9 | 0.00 | 0.00 | 0.00 | 33 | 1018.4 |
| 20260503204226 | 18 | 283 | 6.4 | 25.7 | 0.00 | 0.00 | 0.00 | 34 | 1018.4 |
| 20260503202222 | 18 | 265 | 11.3 | 22.5 | 0.00 | 0.00 | 0.00 | 34 | 1018.8 |
| 20260503195543 | 18 | 284 | 11.3 | 24.1 | 0.00 | 0.00 | 0.00 | 32 | 1019.4 |
| 20260503195116 | 18 | 295 | 17.7 | 24.1 | 0.00 | 0.00 | 0.00 | 32 | 1019.6 |
| 20260503194222 | 18 | 233 | 9.7 | 17.7 | 0.00 | 0.00 | 0.00 | 35 | 1019.7 |
| 20260503193543 | 18 | 261 | 4.8 | 20.9 | 0.00 | 0.00 | 0.00 | 33 | 1019.8 |
| 20260503192902 | 18 | 320 | 16.1 | 20.9 | 0.00 | 0.00 | 0.00 | 35 | 1019.8 |
| 20260503192222 | 17 | 294 | 11.3 | 22.5 | 0.00 | 0.00 | 0.00 | 37 | 1020.0 |
| 20260503191759 | 18 | 238 | 6.4 | 19.3 | 0.00 | 0.00 | 0.00 | 37 | 1020.2 |
| 20260503190222 | 18 | 266 | 14.5 | 25.7 | 0.00 | 0.00 | 0.00 | 39 | 1020.3 |
| 20260503185542 | 17 | 177 | 3.2 | 20.9 | 0.00 | 0.00 | 0.00 | 39 | 1020.5 |
| 20260503185116 | 17 | 259 | 12.9 | 24.1 | 0.00 | 0.00 | 0.00 | 41 | 1020.4 |
| 20260503184432 | 17 | 242 | 12.9 | 24.1 | 0.00 | 0.00 | 0.00 | 40 | 1020.7 |
| 20260503183543 | 17 | 284 | 8.0 | 24.1 | 0.00 | 0.00 | 0.00 | 41 | 1020.6 |
| 20260503182902 | 17 | 314 | 12.9 | 20.9 | 0.00 | 0.00 | 0.00 | 40 | 1020.6 |
| 20260503182434 | 17 | 221 | 6.4 | 19.3 | 0.00 | 0.00 | 0.00 | 39 | 1020.6 |
| 20260503181542 | 17 | 240 | 12.9 | 27.4 | 0.00 | 0.00 | 0.00 | 40 | 1020.9 |
| 20260503181115 | 17 | 285 | 17.7 | 27.4 | 0.00 | 0.00 | 0.00 | 40 | 1020.8 |
| 20260503180222 | 17 | 257 | 9.7 | 19.3 | 0.00 | 0.00 | 0.00 | 43 | 1020.9 |
| 20260503175542 | 16 | 247 | 9.7 | 17.7 | 0.00 | 0.00 | 0.00 | 44 | 1021.0 |
| 20260503174902 | 17 | 236 | 8.0 | 19.3 | 0.00 | 0.00 | 0.00 | 41 | 1021.1 |
| 20260503174223 | 17 | 279 | 8.0 | 16.1 | 0.00 | 0.00 | 0.00 | 41 | 1021.1 |
| 20260503173543 | 16 | 283 | 6.4 | 16.1 | 0.00 | 0.00 | 0.00 | 43 | 1021.2 |
| 20260503172903 | 16 | 103 | 6.4 | 16.1 | 0.00 | 0.00 | 0.00 | 44 | 1021.2 |
| 20260503172222 | 16 | 258 | 8.0 | 20.9 | 0.00 | 0.00 | 0.00 | 45 | 1021.4 |
| 20260503171542 | 16 | 286 | 8.0 | 12.9 | 0.00 | 0.00 | 0.00 | 45 | 1021.5 |
| 20260503171116 | 15 | 151 | 8.0 | 16.1 | 0.00 | 0.00 | 0.00 | 46 | 1021.6 |